Time;durP1;ratioP1;P1;durP2;ratioP2;P2;SDS_P1;SDS_P2;PMS_P1;PMS_P2;Temp;Humidity;BMP_temperature;BMP_pressure;BME280_temperature;BME280_humidity;BME280_pressure;Samples;Min_cycle;Max_cycle;Signal;HPM_P1;HPM_P2
2022/07/01 00:00:09;;;;;;;0.00;0.00;;;23.30;99.90;22.40;95916.00;;;;5046226;28;20281;-76
2022/07/01 00:02:44;;;;;;;0.00;0.00;;;23.30;99.90;22.50;95925.00;;;;5040576;28;20222;-75
2022/07/01 00:05:12;;;;;;;0.00;0.00;;;23.30;99.90;22.50;95935.00;;;;5052439;28;20197;-76
2022/07/01 00:07:47;;;;;;;0.00;0.00;;;23.30;99.90;22.40;95923.00;;;;5042607;28;20191;-76
2022/07/01 00:10:15;;;;;;;0.00;0.00;;;23.30;99.90;22.40;95937.00;;;;5044398;28;20222;-75
2022/07/01 00:12:44;;;;;;;0.00;0.00;;;23.30;99.90;22.40;95919.00;;;;5051148;28;20197;-75
2022/07/01 00:15:12;;;;;;;0.00;0.00;;;23.30;99.90;22.40;95922.00;;;;5046490;28;20530;-76
2022/07/01 00:17:40;;;;;;;0.00;0.00;;;23.30;99.90;22.20;95923.00;;;;5047506;28;20237;-76
2022/07/01 00:20:11;;;;;;;0.00;0.00;;;23.20;99.90;22.40;95916.00;;;;5043753;28;20222;-77
2022/07/01 00:22:39;;;;;;;0.00;0.00;;;23.20;99.90;22.30;95905.00;;;;5050391;28;20202;-76
2022/07/01 00:25:09;;;;;;;0.00;0.00;;;23.10;99.90;22.30;95902.00;;;;5052042;28;20190;-77
2022/07/01 00:27:38;;;;;;;0.00;0.00;;;23.10;99.90;22.30;95904.00;;;;5052003;28;20190;-77
2022/07/01 00:30:08;;;;;;;0.00;0.00;;;23.10;99.90;22.30;95922.00;;;;5047833;28;20226;-77
2022/07/01 00:32:37;;;;;;;0.00;0.00;;;23.10;99.90;22.30;95904.00;;;;5040459;28;20210;-77
2022/07/01 00:35:06;;;;;;;0.00;0.00;;;23.10;99.90;22.30;95903.00;;;;5044292;28;20222;-77
2022/07/01 00:37:35;;;;;;;0.00;0.00;;;23.20;99.90;22.30;95899.00;;;;5038691;28;20214;-77
2022/07/01 00:40:05;;;;;;;0.00;0.00;;;23.10;99.90;22.30;95890.00;;;;5033523;28;20222;-78
2022/07/01 00:42:33;;;;;;;0.00;0.00;;;23.10;99.90;22.20;95899.00;;;;5039271;28;20203;-78
2022/07/01 00:45:01;;;;;;;0.00;0.00;;;23.10;99.90;22.30;95898.00;;;;5036195;28;20202;-78
2022/07/01 00:47:29;;;;;;;0.00;0.00;;;23.20;99.90;22.30;95887.00;;;;5050091;28;20186;-78
2022/07/01 00:49:57;;;;;;;0.00;0.00;;;23.10;99.90;22.20;95889.00;;;;5044231;28;20219;-78
2022/07/01 00:52:25;;;;;;;0.00;0.00;;;23.10;99.90;22.30;95887.00;;;;5033730;28;20194;-76
2022/07/01 00:55:03;;;;;;;0.00;0.00;;;23.10;99.90;22.30;95885.00;;;;5037394;28;20203;-75
2022/07/01 00:57:33;;;;;;;0.00;0.00;;;23.20;99.90;22.30;95886.00;;;;5031821;28;20203;-77
2022/07/01 01:00:05;;;;;;;0.00;0.00;;;23.20;99.90;22.30;95892.00;;;;5031820;28;20226;-77
2022/07/01 01:02:33;;;;;;;0.00;0.00;;;23.20;99.90;22.40;95898.00;;;;5042744;28;20277;-77
2022/07/01 01:05:01;;;;;;;0.00;0.00;;;23.20;99.90;22.40;95882.00;;;;5044897;28;20199;-77
2022/07/01 01:07:30;;;;;;;0.00;0.00;;;23.20;99.90;22.40;95891.00;;;;5052184;28;20586;-77
2022/07/01 01:10:00;;;;;;;0.00;0.00;;;23.30;99.90;22.30;95878.00;;;;5051020;28;20233;-77
2022/07/01 01:12:30;;;;;;;0.00;0.00;;;23.20;99.90;22.20;95875.00;;;;5032502;28;20667;-77
2022/07/01 01:14:58;;;;;;;0.00;0.00;;;23.20;99.90;22.20;95843.00;;;;5043815;28;20256;-77
2022/07/01 01:17:27;;;;;;;0.00;0.00;;;23.10;99.90;22.10;95884.00;;;;5051384;28;20673;-77
2022/07/01 01:19:55;;;;;;;0.00;0.00;;;23.00;99.90;22.00;95878.00;;;;5044634;28;20525;-77
2022/07/01 01:22:24;;;;;;;0.00;0.00;;;22.90;99.90;22.00;95882.00;;;;5035061;28;20202;-77
2022/07/01 01:24:52;;;;;;;0.00;0.00;;;22.90;99.90;22.00;95897.00;;;;5031488;28;20190;-78
2022/07/01 01:27:20;;;;;;;0.00;0.00;;;22.90;99.90;21.90;95907.00;;;;5047932;28;20206;-77
2022/07/01 01:29:48;;;;;;;0.00;0.00;;;22.80;99.90;21.90;95900.00;;;;5054210;28;20218;-78
2022/07/01 01:32:16;;;;;;;0.00;0.00;;;22.80;99.90;21.90;95896.00;;;;5036194;28;20191;-78
2022/07/01 01:34:44;;;;;;;0.00;0.00;;;22.80;99.90;21.90;95913.00;;;;5039094;28;20197;-78
2022/07/01 01:37:12;;;;;;;0.00;0.00;;;22.80;99.90;21.90;95913.00;;;;5052072;28;20195;-77
2022/07/01 01:39:41;;;;;;;0.00;0.00;;;22.80;99.90;21.90;95913.00;;;;5043613;28;20618;-76
2022/07/01 01:42:09;;;;;;;0.00;0.00;;;22.80;99.90;21.90;95909.00;;;;5035306;28;20217;-76
2022/07/01 01:44:37;;;;;;;0.00;0.00;;;22.80;99.90;21.90;95933.00;;;;5047499;28;20202;-76
2022/07/01 01:47:06;;;;;;;0.00;0.00;;;22.80;99.90;22.00;95865.00;;;;5044621;28;20697;-76
2022/07/01 01:49:34;;;;;;;0.00;0.00;;;22.80;99.90;21.90;95945.00;;;;5034475;28;20250;-77
2022/07/01 01:52:04;;;;;;;0.00;0.00;;;22.80;99.90;21.90;95913.00;;;;5049361;28;20222;-74
2022/07/01 01:54:32;;;;;;;0.00;0.00;;;22.80;99.90;21.90;95917.00;;;;5054770;28;20206;-74
2022/07/01 01:57:01;;;;;;;0.00;0.00;;;22.80;99.90;21.80;95916.00;;;;5054526;28;20654;-74
2022/07/01 01:59:29;;;;;;;0.00;0.00;;;22.80;99.90;21.90;95925.00;;;;5053680;28;20756;-74
2022/07/01 02:01:57;;;;;;;0.00;0.00;;;22.80;99.90;21.90;95893.00;;;;5054038;28;20202;-74
2022/07/01 02:04:25;;;;;;;0.00;0.00;;;22.80;99.90;21.90;95938.00;;;;5054733;28;20183;-74
2022/07/01 02:06:54;;;;;;;0.00;0.00;;;22.70;99.90;21.80;95943.00;;;;5050026;28;20198;-75
2022/07/01 02:09:22;;;;;;;0.00;0.00;;;22.70;99.90;21.80;95934.00;;;;5047647;28;20694;-75
2022/07/01 02:11:50;;;;;;;0.00;0.00;;;22.70;99.90;21.70;95941.00;;;;5037684;28;20222;-74
2022/07/01 02:14:20;;;;;;;0.00;0.00;;;22.70;99.90;21.80;95952.00;;;;5044563;28;20221;-74
2022/07/01 02:16:47;;;;;;;0.00;0.00;;;22.70;99.90;21.80;95960.00;;;;5038570;28;20199;-74
2022/07/01 02:19:15;;;;;;;0.00;0.00;;;22.70;99.90;21.70;95958.00;;;;5053723;28;20717;-74
2022/07/01 02:21:43;;;;;;;0.00;0.00;;;22.60;99.90;21.70;95950.00;;;;5039545;28;20212;-75
2022/07/01 02:24:11;;;;;;;0.00;0.00;;;22.50;99.90;21.60;95947.00;;;;5046847;28;20198;-74
2022/07/01 02:26:39;;;;;;;0.00;0.00;;;22.50;99.90;21.60;95948.00;;;;5053973;28;20195;-74
2022/07/01 02:29:07;;;;;;;0.00;0.00;;;22.50;99.90;21.60;95947.00;;;;5046138;28;20615;-74
2022/07/01 02:31:36;;;;;;;0.00;0.00;;;22.50;99.90;21.60;95957.00;;;;5034664;28;20298;-75
2022/07/01 02:34:05;;;;;;;0.00;0.00;;;22.50;99.90;21.60;95944.00;;;;5034871;28;20616;-75
2022/07/01 02:36:33;;;;;;;0.00;0.00;;;22.50;99.90;21.60;95947.00;;;;5048566;28;20567;-74
2022/07/01 02:39:01;;;;;;;0.00;0.00;;;22.50;99.90;21.50;95937.00;;;;5041033;28;20681;-73
2022/07/01 02:41:29;;;;;;;0.00;0.00;;;22.40;99.90;21.40;95939.00;;;;5044371;28;20202;-74
2022/07/01 02:43:57;;;;;;;0.00;0.00;;;22.30;99.90;21.40;95953.00;;;;5044693;28;20198;-74
2022/07/01 02:46:25;;;;;;;0.00;0.00;;;22.30;99.90;21.40;95943.00;;;;5042552;28;20218;-75
2022/07/01 02:48:54;;;;;;;0.00;0.00;;;22.30;99.90;21.30;95937.00;;;;5051797;28;20206;-75
2022/07/01 02:51:22;;;;;;;0.00;0.00;;;22.20;99.90;21.30;95918.00;;;;5037633;28;20206;-75
2022/07/01 02:53:50;;;;;;;0.00;0.00;;;22.20;99.90;21.20;95918.00;;;;5053727;28;20194;-74
2022/07/01 02:56:18;;;;;;;0.00;0.00;;;22.10;99.90;21.20;95921.00;;;;5053139;28;20191;-75
2022/07/01 02:58:46;;;;;;;0.00;0.00;;;22.10;99.90;21.10;95928.00;;;;5049175;28;20186;-75
2022/07/01 03:01:14;;;;;;;0.00;0.00;;;22.10;99.90;21.10;95920.00;;;;5047587;28;20199;-74
2022/07/01 03:03:42;;;;;;;0.00;0.00;;;22.10;99.90;21.10;95921.00;;;;5047106;28;20578;-74
2022/07/01 03:06:11;;;;;;;0.00;0.00;;;22.00;99.90;21.10;95921.00;;;;5052066;28;20207;-74
2022/07/01 03:08:39;;;;;;;0.00;0.00;;;22.00;99.90;21.10;95928.00;;;;5040915;28;20191;-75
2022/07/01 03:11:07;;;;;;;0.00;0.00;;;22.00;99.90;21.10;95929.00;;;;5044148;28;20229;-74
2022/07/01 03:13:42;;;;;;;0.00;0.00;;;22.00;99.90;20.90;95933.00;;;;5037878;28;20257;-74
2022/07/01 03:16:10;;;;;;;0.00;0.00;;;21.90;99.90;21.00;95961.00;;;;5036667;28;20195;-75
2022/07/01 03:18:38;;;;;;;0.00;0.00;;;21.90;99.90;21.00;95932.00;;;;5049781;28;20198;-75
2022/07/01 03:21:06;;;;;;;0.00;0.00;;;21.80;99.90;20.80;95928.00;;;;5050060;28;20218;-74
2022/07/01 03:23:35;;;;;;;0.00;0.00;;;21.70;99.90;20.70;95938.00;;;;5053145;28;20605;-74
2022/07/01 03:26:03;;;;;;;0.00;0.00;;;21.60;99.90;20.60;95931.00;;;;5041155;28;20205;-74
2022/07/01 03:28:31;;;;;;;0.00;0.00;;;21.60;99.90;20.60;95944.00;;;;5045096;28;20190;-75
2022/07/01 03:30:59;;;;;;;0.00;0.00;;;21.50;99.90;20.50;95951.00;;;;5052998;28;20222;-75
2022/07/01 03:33:27;;;;;;;0.00;0.00;;;21.40;99.90;20.50;95950.00;;;;5046607;28;20222;-74
2022/07/01 03:36:01;;;;;;;0.00;0.00;;;21.40;99.90;20.50;95981.00;;;;5052275;28;20199;-74
2022/07/01 03:38:32;;;;;;;0.00;0.00;;;21.40;99.90;20.60;96002.00;;;;5051620;28;20229;-75
2022/07/01 03:41:01;;;;;;;0.00;0.00;;;21.50;99.90;20.60;96010.00;;;;5046388;28;20698;-75
2022/07/01 03:43:29;;;;;;;0.00;0.00;;;21.50;99.90;20.50;96026.00;;;;5053105;28;20191;-74
2022/07/01 03:45:57;;;;;;;0.00;0.00;;;21.40;99.90;20.50;96018.00;;;;5053882;28;20193;-75
2022/07/01 03:48:26;;;;;;;0.00;0.00;;;21.40;99.90;20.40;96004.00;;;;5052150;28;20205;-74
2022/07/01 03:50:54;;;;;;;0.00;0.00;;;21.30;99.90;20.20;95995.00;;;;5045178;28;20214;-73
2022/07/01 03:56:10;;;;;;;0.00;0.00;;;21.20;99.90;20.20;95995.00;;;;5033529;28;20194;-74
2022/07/01 03:58:38;;;;;;;0.00;0.00;;;21.10;99.90;20.20;95990.00;;;;5033083;28;20199;-73
2022/07/01 04:01:06;;;;;;;0.00;0.00;;;21.10;99.90;20.10;95993.00;;;;5048935;28;20222;-73
2022/07/01 04:03:33;;;;;;;0.00;0.00;;;21.10;99.90;20.10;95985.00;;;;5044563;28;20184;-74
2022/07/01 04:06:02;;;;;;;0.00;0.00;;;21.10;99.90;20.10;95984.00;;;;5032184;28;20215;-73
2022/07/01 04:08:31;;;;;;;0.00;0.00;;;21.00;99.90;20.00;95987.00;;;;5051293;28;20588;-74
2022/07/01 04:10:59;;;;;;;0.00;0.00;;;21.00;99.90;19.90;95966.00;;;;5038155;28;20622;-74
2022/07/01 04:13:29;;;;;;;0.00;0.00;;;21.00;99.90;20.00;95995.00;;;;5045633;28;20202;-74
2022/07/01 04:16:00;;;;;;;0.00;0.00;;;21.00;99.90;20.00;95984.00;;;;5034352;28;20210;-74
2022/07/01 04:18:30;;;;;;;0.00;0.00;;;21.00;99.90;19.90;95987.00;;;;5046928;28;20285;-75
2022/07/01 04:23:44;;;;;;;0.00;0.00;;;20.80;99.90;20.00;96010.00;;;;5041060;28;20197;-74
2022/07/01 04:26:12;;;;;;;0.00;0.00;;;21.00;99.90;20.00;96006.00;;;;5052094;28;20191;-74
2022/07/01 04:29:02;;;;;;;0.00;0.00;;;20.90;99.90;19.90;96013.00;;;;5051348;28;20253;-74
2022/07/01 04:31:31;;;;;;;0.00;0.00;;;20.90;99.90;19.90;96026.00;;;;5034902;28;21458;-74
2022/07/01 04:33:59;;;;;;;0.00;0.00;;;20.90;99.90;19.90;96019.00;;;;5052400;28;20617;-75
2022/07/01 04:36:27;;;;;;;0.00;0.00;;;20.80;99.90;19.70;96011.00;;;;5039107;28;20195;-75
2022/07/01 04:38:55;;;;;;;0.00;0.00;;;20.60;99.90;19.80;96026.00;;;;5041357;28;20509;-74
2022/07/01 04:44:10;;;;;;;0.00;0.00;;;20.70;99.90;19.80;96019.00;;;;5031663;28;20195;-73
2022/07/01 04:46:38;;;;;;;0.00;0.00;;;20.70;99.90;19.90;96032.00;;;;5032840;28;20352;-73
2022/07/01 04:49:07;;;;;;;0.00;0.00;;;20.80;99.90;19.90;96021.00;;;;5032063;28;20214;-74
2022/07/01 04:51:36;;;;;;;0.00;0.00;;;20.80;99.90;20.00;96015.00;;;;5035087;28;20194;-73
2022/07/01 04:54:05;;;;;;;0.00;0.00;;;20.90;99.90;20.00;96007.00;;;;5043381;28;20459;-74
2022/07/01 04:56:35;;;;;;;0.00;0.00;;;21.00;99.90;20.00;96016.00;;;;5050445;28;20197;-74
2022/07/01 04:59:12;;;;;;;0.00;0.00;;;21.00;99.90;20.00;96015.00;;;;5031546;28;20233;-73
2022/07/01 05:01:40;;;;;;;0.00;0.00;;;21.00;99.90;20.10;96014.00;;;;5034305;28;20567;-74
2022/07/01 05:04:08;;;;;;;0.00;0.00;;;21.10;99.90;20.20;96018.00;;;;5051967;28;20205;-73
2022/07/01 05:06:36;;;;;;;0.00;0.00;;;21.10;99.90;20.10;96022.00;;;;5053727;28;20482;-74
2022/07/01 05:09:05;;;;;;;0.00;0.00;;;21.00;99.90;20.10;96009.00;;;;5050880;28;20736;-75
2022/07/01 05:11:33;;;;;;;0.00;0.00;;;21.00;99.90;20.10;96007.00;;;;5050136;28;20202;-75
2022/07/01 05:14:01;;;;;;;0.00;0.00;;;21.00;99.90;20.00;95994.00;;;;5051918;28;20256;-75
2022/07/01 05:16:31;;;;;;;0.00;0.00;;;20.90;99.90;20.00;96020.00;;;;5036685;28;20199;-77
2022/07/01 05:21:59;;;;;;;0.00;0.00;;;20.90;99.90;20.10;96045.00;;;;5045044;28;20670;-77
2022/07/01 05:24:31;;;;;;;0.00;0.00;;;21.00;99.90;20.10;96052.00;;;;5039077;28;20682;-77
2022/07/01 05:27:01;;;;;;;0.00;0.00;;;21.00;99.90;20.20;96036.00;;;;5037430;28;20200;-76
2022/07/01 05:29:30;;;;;;;0.00;0.00;;;21.10;99.90;20.30;96073.00;;;;5031753;28;20230;-75
2022/07/01 05:31:59;;;;;;;0.00;0.00;;;21.20;99.90;20.10;96085.00;;;;5031606;28;20202;-76
2022/07/01 05:34:28;;;;;;;0.00;0.00;;;21.10;99.90;20.10;96072.00;;;;5033388;28;20195;-78
2022/07/01 05:36:56;;;;;;;0.00;0.00;;;21.10;99.90;20.20;96073.00;;;;5045301;28;20201;-76
2022/07/01 05:39:25;;;;;;;0.00;0.00;;;21.20;99.90;20.20;96070.00;;;;5031247;28;20226;-75
2022/07/01 05:41:53;;;;;;;0.00;0.00;;;21.10;99.90;20.10;96091.00;;;;5032723;28;20191;-77
2022/07/01 05:44:21;;;;;;;0.00;0.00;;;21.10;99.90;20.10;96067.00;;;;5046460;28;20203;-77
2022/07/01 05:46:49;;;;;;;0.00;0.00;;;21.10;99.90;20.10;96062.00;;;;5032215;28;20226;-76
2022/07/01 05:49:18;;;;;;;0.00;0.00;;;21.10;99.90;20.10;96092.00;;;;5037090;28;20207;-76
2022/07/01 05:51:46;;;;;;;0.00;0.00;;;21.10;99.90;20.10;96105.00;;;;5039002;28;20197;-76
2022/07/01 05:54:15;;;;;;;0.00;0.00;;;21.10;99.90;20.00;96092.00;;;;5044896;28;20226;-75
2022/07/01 05:56:43;;;;;;;0.00;0.00;;;21.00;99.90;20.10;96120.00;;;;5041367;28;20195;-76
2022/07/01 05:59:11;;;;;;;0.00;0.00;;;21.00;99.90;20.10;96111.00;;;;5041717;28;20574;-75
2022/07/01 06:01:39;;;;;;;0.00;0.00;;;21.00;99.90;20.20;96110.00;;;;5043839;28;20198;-75
2022/07/01 06:04:07;;;;;;;0.00;0.00;;;21.10;99.90;20.30;96104.00;;;;5036392;28;20230;-75
2022/07/01 06:06:36;;;;;;;0.00;0.00;;;21.20;99.90;20.40;96116.00;;;;5043430;28;20640;-76
2022/07/01 06:09:04;;;;;;;0.00;0.00;;;21.30;99.90;20.40;96109.00;;;;5041194;28;20215;-75
2022/07/01 06:11:32;;;;;;;0.00;0.00;;;21.30;99.90;20.40;96110.00;;;;5037383;28;20191;-76
2022/07/01 06:14:00;;;;;;;0.00;0.00;;;21.30;99.90;20.40;96112.00;;;;5044295;28;20237;-77
2022/07/01 06:16:28;;;;;;;0.00;0.00;;;21.20;99.90;20.40;96120.00;;;;5041730;28;20195;-77
2022/07/01 06:18:59;;;;;;;0.00;0.00;;;21.30;99.90;20.50;96126.00;;;;5046551;28;20191;-78
2022/07/01 06:21:27;;;;;;;0.00;0.00;;;21.40;99.90;20.30;96108.00;;;;5051730;28;20206;-77
2022/07/01 06:23:57;;;;;;;0.00;0.00;;;21.40;99.90;20.60;96117.00;;;;5043404;28;20207;-78
2022/07/01 06:26:25;;;;;;;0.00;0.00;;;21.50;99.90;20.60;96120.00;;;;5037543;28;20203;-78
2022/07/01 06:28:53;;;;;;;0.00;0.00;;;21.50;99.90;20.60;96134.00;;;;5044518;28;20788;-78
2022/07/01 06:31:23;;;;;;;0.00;0.00;;;21.50;99.90;20.50;96134.00;;;;5047773;28;20209;-78
2022/07/01 06:33:51;;;;;;;0.00;0.00;;;21.40;99.90;20.40;96113.00;;;;5046449;28;20230;-76
2022/07/01 06:36:19;;;;;;;0.00;0.00;;;21.30;99.90;20.10;96127.00;;;;5043504;28;20198;-76
2022/07/01 06:38:47;;;;;;;0.00;0.00;;;21.10;99.90;20.10;96119.00;;;;5038199;28;20480;-77
2022/07/01 06:41:29;;;;;;;0.00;0.00;;;21.00;99.90;19.70;96128.00;;;;5039634;28;20676;-78
2022/07/01 06:43:58;;;;;;;0.00;0.00;;;21.00;99.90;19.90;96129.00;;;;5045670;28;20225;-78
2022/07/01 06:46:27;;;;;;;0.00;0.00;;;20.90;99.90;19.90;96127.00;;;;5055988;28;20205;-77
2022/07/01 06:48:57;;;;;;;0.00;0.00;;;20.80;99.90;19.90;96113.00;;;;5056358;28;20654;-77
2022/07/01 06:51:27;;;;;;;0.00;0.00;;;20.80;99.90;19.50;96111.00;;;;5056009;28;20186;-77
2022/07/01 06:53:55;;;;;;;0.00;0.00;;;20.60;99.90;19.70;96128.00;;;;5056058;28;20772;-78
2022/07/01 06:56:25;;;;;;;0.00;0.00;;;20.60;99.90;19.70;96130.00;;;;5054008;28;20191;-78
2022/07/01 06:58:53;;;;;;;0.00;0.00;;;20.70;99.90;19.80;96135.00;;;;5055211;28;20255;-77
2022/07/01 07:01:21;;;;;;;0.00;0.00;;;20.80;99.90;19.90;96068.00;;;;5055975;28;20232;-77
2022/07/01 07:03:49;;;;;;;0.00;0.00;;;20.90;99.90;19.90;96123.00;;;;5055058;28;20194;-77
2022/07/01 07:06:17;;;;;;;0.00;0.00;;;20.90;99.90;19.90;96132.00;;;;5065462;28;20251;-77
2022/07/01 07:08:45;;;;;;;0.00;0.00;;;21.00;99.90;19.90;96142.00;;;;5058185;28;20194;-77
2022/07/01 07:11:14;;;;;;;0.00;0.00;;;20.90;99.90;19.90;96127.00;;;;5056270;28;20204;-77
2022/07/01 07:13:44;;;;;;;0.00;0.00;;;20.90;99.90;19.90;96125.00;;;;5054969;28;20300;-77
2022/07/01 07:16:12;;;;;;;0.00;0.00;;;20.90;99.90;19.90;96150.00;;;;5054532;28;20197;-77
2022/07/01 07:18:41;;;;;;;0.00;0.00;;;20.90;99.90;20.10;96177.00;;;;5054144;28;20206;-77
2022/07/01 07:21:09;;;;;;;0.00;0.00;;;21.00;99.90;19.90;96186.00;;;;5055147;28;20731;-76
2022/07/01 07:23:37;;;;;;;0.00;0.00;;;20.90;99.90;19.90;96174.00;;;;5054637;28;20243;-78
2022/07/01 07:26:05;;;;;;;0.00;0.00;;;20.90;99.90;19.80;96169.00;;;;5054033;28;20202;-77
2022/07/01 07:28:33;;;;;;;0.00;0.00;;;20.80;99.90;19.70;96148.00;;;;5054621;28;20194;-78
2022/07/01 07:31:03;;;;;;;0.00;0.00;;;20.80;99.90;19.70;96174.00;;;;5054310;28;20214;-76
2022/07/01 07:33:31;;;;;;;0.00;0.00;;;20.70;99.90;19.60;96145.00;;;;5054219;28;20571;-77
2022/07/01 07:35:59;;;;;;;0.00;0.00;;;20.70;99.90;19.60;96170.00;;;;5054526;28;20198;-78
2022/07/01 07:38:27;;;;;;;0.00;0.00;;;20.70;99.90;19.60;96182.00;;;;5053888;28;20202;-77
2022/07/01 07:40:55;;;;;;;0.00;0.00;;;20.70;99.90;19.60;96178.00;;;;5054131;28;20206;-77
2022/07/01 07:43:23;;;;;;;0.00;0.00;;;20.70;99.90;19.50;96170.00;;;;5055352;28;20213;-77
2022/07/01 07:45:51;;;;;;;0.00;0.00;;;20.60;99.90;19.20;96153.00;;;;5054165;28;20201;-76
2022/07/01 07:48:21;;;;;;;0.00;0.00;;;20.30;99.90;19.10;96155.00;;;;5055037;28;20201;-76
2022/07/01 07:50:49;;;;;;;0.00;0.00;;;20.20;99.90;19.00;96167.00;;;;5053921;28;20210;-77
2022/07/01 07:53:17;;;;;;;0.00;0.00;;;20.00;99.90;18.60;96136.00;;;;5054147;28;20210;-77
2022/07/01 07:55:45;;;;;;;0.00;0.00;;;19.70;99.90;18.50;96113.00;;;;5054653;28;20205;-77
2022/07/01 07:58:13;;;;;;;0.00;0.00;;;19.50;99.90;18.50;96140.00;;;;5055067;28;20218;-77
2022/07/01 08:00:41;;;;;;;0.00;0.00;;;19.50;99.90;18.30;96149.00;;;;5055363;28;20596;-78
2022/07/01 08:03:09;;;;;;;0.00;0.00;;;19.50;99.90;18.20;96146.00;;;;5054327;28;20228;-78
2022/07/01 08:05:39;;;;;;;0.00;0.00;;;19.40;99.90;18.20;96137.00;;;;5054166;28;20567;-77
2022/07/01 08:08:07;;;;;;;0.00;0.00;;;19.30;99.90;18.00;96145.00;;;;5053978;28;20198;-77
2022/07/01 08:10:35;;;;;;;0.00;0.00;;;19.10;99.90;17.60;96150.00;;;;5054378;28;20222;-77
2022/07/01 08:13:05;;;;;;;0.00;0.00;;;18.70;99.90;17.60;96145.00;;;;5054920;28;20190;-77
2022/07/01 08:15:34;;;;;;;0.00;0.00;;;18.60;99.90;17.50;96157.00;;;;5059369;28;20194;-77
2022/07/01 08:18:02;;;;;;;0.00;0.00;;;18.50;99.90;17.30;96158.00;;;;5058964;28;20207;-75
2022/07/01 08:20:30;;;;;;;0.00;0.00;;;18.40;99.90;17.40;96174.00;;;;5057438;28;20207;-75
2022/07/01 08:22:59;;;;;;;0.00;0.00;;;18.40;99.90;17.30;96062.00;;;;5055070;28;20187;-76
2022/07/01 08:25:28;;;;;;;0.00;0.00;;;18.30;99.90;17.20;96169.00;;;;5063698;28;20209;-77
2022/07/01 08:28:03;;;;;;;0.00;0.00;;;18.30;99.90;17.10;96155.00;;;;5063246;28;20201;-77
2022/07/01 08:30:32;;;;;;;0.00;0.00;;;18.20;99.90;17.00;96169.00;;;;5066943;28;20218;-75
2022/07/01 08:33:00;;;;;;;0.00;0.00;;;18.10;99.90;17.00;96159.00;;;;5065031;28;20201;-76
2022/07/01 08:35:29;;;;;;;0.00;0.00;;;18.10;99.90;17.00;96153.00;;;;5068020;28;20218;-76
2022/07/01 08:37:59;;;;;;;0.00;0.00;;;18.00;99.90;17.10;96158.00;;;;5067047;28;20221;-76
2022/07/01 08:40:28;;;;;;;0.00;0.00;;;18.10;99.90;17.10;96157.00;;;;5066270;28;20214;-76
2022/07/01 08:42:58;;;;;;;0.00;0.00;;;18.10;99.90;17.10;96119.00;;;;5067356;28;20202;-76
2022/07/01 08:45:28;;;;;;;0.00;0.00;;;18.20;99.90;16.90;96147.00;;;;5067450;28;20194;-76
2022/07/01 08:48:00;;;;;;;0.00;0.00;;;18.00;99.90;16.90;96158.00;;;;5066240;28;20190;-76
2022/07/01 08:50:31;;;;;;;0.00;0.00;;;18.00;99.90;16.90;96130.00;;;;5066499;28;20210;-76
2022/07/01 08:53:00;;;;;;;0.00;0.00;;;18.00;99.90;17.00;96130.00;;;;5069888;28;20237;-77
2022/07/01 08:55:28;;;;;;;0.10;0.10;;;18.10;99.90;17.10;96058.00;;;;5061523;28;20570;-76
2022/07/01 08:57:57;;;;;;;0.00;0.00;;;18.20;99.90;17.10;96169.00;;;;5054517;28;20281;-77
2022/07/01 09:00:31;;;;;;;0.00;0.00;;;18.20;99.90;17.20;96173.00;;;;5053596;28;20221;-76
2022/07/01 09:03:01;;;;;;;0.00;0.00;;;18.20;99.90;17.40;96192.00;;;;5055427;28;20190;-76
2022/07/01 09:05:32;;;;;;;0.00;0.00;;;18.50;99.90;17.40;96189.00;;;;5055385;28;20586;-76
2022/07/01 09:08:03;;;;;;;0.00;0.00;;;18.50;99.90;17.40;96206.00;;;;5054927;28;20500;-76
2022/07/01 09:10:34;;;;;;;0.00;0.00;;;18.50;99.90;17.30;96188.00;;;;5054961;28;20255;-76
2022/07/01 09:13:07;;;;;;;0.00;0.00;;;18.40;99.90;17.40;96184.00;;;;5055278;28;20244;-75
2022/07/01 09:15:37;;;;;;;0.00;0.00;;;18.50;99.90;17.20;96166.00;;;;5055826;28;20257;-76
2022/07/01 09:18:10;;;;;;;0.00;0.00;;;18.30;99.90;17.10;96139.00;;;;5055361;28;20658;-77
2022/07/01 09:20:41;;;;;;;0.00;0.00;;;18.20;99.90;17.10;96163.00;;;;5052974;28;20627;-77
2022/07/01 09:23:14;;;;;;;0.00;0.00;;;18.20;99.90;16.90;96136.00;;;;5052268;28;20192;-77
2022/07/01 09:25:45;;;;;;;0.00;0.00;;;18.10;99.90;17.00;96160.00;;;;5054260;28;20205;-76
2022/07/01 09:28:24;;;;;;;0.00;0.00;;;18.20;99.90;17.10;96188.00;;;;5054993;28;20198;-77
2022/07/01 09:30:56;;;;;;;0.00;0.00;;;18.20;99.90;17.10;96170.00;;;;5056573;28;20222;-77
2022/07/01 09:33:26;;;;;;;0.00;0.00;;;18.20;99.90;17.10;96176.00;;;;5057971;28;20266;-76
2022/07/01 09:35:57;;;;;;;0.00;0.00;;;18.10;99.90;17.00;96170.00;;;;5058069;28;20270;-76
2022/07/01 09:38:27;;;;;;;0.00;0.00;;;18.10;99.90;16.90;96193.00;;;;5056099;28;20203;-77
2022/07/01 09:41:03;;;;;;;0.00;0.00;;;18.00;99.90;16.90;96167.00;;;;5052102;28;20619;-77
2022/07/01 09:43:35;;;;;;;0.00;0.00;;;18.00;99.90;17.00;96178.00;;;;5053676;28;20186;-77
2022/07/01 09:46:07;;;;;;;0.00;0.00;;;18.10;99.90;17.00;96179.00;;;;5053306;28;20731;-77
2022/07/01 09:48:46;;;;;;;0.00;0.00;;;18.10;99.90;17.10;96210.00;;;;5052707;28;20217;-77
2022/07/01 09:51:16;;;;;;;0.00;0.00;;;18.20;99.90;17.30;96216.00;;;;5056498;28;20202;-76
2022/07/01 09:53:45;;;;;;;0.00;0.00;;;18.30;99.90;17.40;96228.00;;;;5056864;28;20225;-77
2022/07/01 09:56:14;;;;;;;0.00;0.00;;;18.50;99.90;17.40;96230.00;;;;5056518;28;20225;-77
2022/07/01 09:58:42;;;;;;;0.00;0.00;;;18.50;99.90;17.40;96233.00;;;;5055645;28;20190;-77
2022/07/01 10:01:13;;;;;;;0.00;0.00;;;18.50;99.90;17.40;96213.00;;;;5056445;28;20221;-76
2022/07/01 10:03:42;;;;;;;0.00;0.00;;;18.50;99.90;17.40;96213.00;;;;5057490;28;20194;-77
2022/07/01 10:06:42;;;;;;;0.00;0.00;;;18.50;99.90;17.40;96248.00;;;;5056735;28;20194;-78
2022/07/01 10:10:07;;;;;;;0.00;0.00;;;18.50;99.90;17.30;96212.00;;;;5055661;28;20210;-77
2022/07/01 10:12:41;;;;;;;0.00;0.00;;;18.40;99.90;17.30;96198.00;;;;5034228;28;20686;-76
2022/07/01 10:15:16;;;;;;;0.00;0.00;;;18.30;99.90;17.30;96195.00;;;;5056148;28;20243;-77
2022/07/01 10:17:47;;;;;;;0.00;0.00;;;18.30;99.90;17.30;96189.00;;;;5055014;28;20198;-77
2022/07/01 10:20:18;;;;;;;0.00;0.00;;;18.30;99.90;17.30;96207.00;;;;5055284;28;20618;-76
2022/07/01 10:23:00;;;;;;;0.00;0.00;;;18.40;99.90;17.20;96211.00;;;;5055512;28;20221;-77
2022/07/01 10:25:48;;;;;;;0.00;0.00;;;18.30;99.90;17.00;96186.00;;;;5055228;28;20198;-77
2022/07/01 10:28:27;;;;;;;0.00;0.00;;;18.30;99.90;16.90;96181.00;;;;5055382;28;20535;-78
2022/07/01 10:31:01;;;;;;;0.00;0.00;;;18.20;99.90;17.00;96207.00;;;;5054595;28;20578;-77
2022/07/01 10:33:33;;;;;;;0.00;0.00;;;18.20;99.90;17.10;96199.00;;;;5054823;28;20198;-77
2022/07/01 10:36:27;;;;;;;0.00;0.00;;;18.20;99.90;17.10;96219.00;;;;5055001;28;20347;-77
2022/07/01 10:39:22;;;;;;;0.00;0.00;;;18.30;99.90;16.90;96194.00;;;;5053883;28;20213;-77
2022/07/01 10:42:04;;;;;;;0.00;0.00;;;18.20;99.90;16.90;96174.00;;;;5054216;28;20666;-77
2022/07/01 10:45:08;;;;;;;0.00;0.00;;;18.10;99.90;17.00;96218.00;;;;5055193;28;20614;-77
2022/07/01 10:47:37;;;;;;;0.00;0.00;;;18.10;99.90;17.00;96220.00;;;;5055680;28;20566;-77
2022/07/01 10:50:09;;;;;;;0.00;0.00;;;18.10;99.90;16.90;96233.00;;;;5055741;28;20216;-77
2022/07/01 10:52:38;;;;;;;0.00;0.00;;;18.10;99.90;16.90;96209.00;;;;5054797;28;20665;-77
2022/07/01 10:55:09;;;;;;;0.00;0.00;;;18.10;99.90;17.00;96229.00;;;;5056223;28;20214;-76
2022/07/01 10:57:42;;;;;;;0.00;0.00;;;18.10;99.90;16.90;96230.00;;;;5054540;28;20191;-77
2022/07/01 11:00:35;;;;;;;0.00;0.00;;;18.10;99.90;16.90;96263.00;;;;5055188;28;20701;-77
2022/07/01 11:03:20;;;;;;;0.00;0.00;;;18.10;99.90;17.00;96232.00;;;;5055366;28;20194;-77
2022/07/01 11:05:53;;;;;;;0.00;0.00;;;18.10;99.90;17.10;96248.00;;;;5055138;28;20556;-78
2022/07/01 11:08:21;;;;;;;0.00;0.00;;;18.20;99.90;17.10;96256.00;;;;5055929;28;20195;-76
2022/07/01 11:11:03;;;;;;;0.00;0.00;;;18.20;99.90;16.80;96242.00;;;;5065533;28;20235;-77
2022/07/01 11:13:35;;;;;;;0.00;0.00;;;18.20;99.90;16.80;96248.00;;;;5054061;28;20657;-78
2022/07/01 11:16:05;;;;;;;0.00;0.00;;;18.00;99.90;16.80;96231.00;;;;5055685;28;20222;-77
2022/07/01 11:18:33;;;;;;;0.00;0.00;;;18.00;99.90;16.70;96234.00;;;;5054750;28;20202;-77